This is the latest recevied weather packets stored in our database for station/object HA2KAB-10. If no packets are shown the sender has not sent any weather packets the latest 10 day(s).
| Time | Temp. | Humidity | Pressure | Rain* | Wind** | Luminosity | Snow |
|---|---|---|---|---|---|---|---|
| 1787973241 | 27.22° C | 43% | 1020.5 hPa | - | - | - | - |
| 1787970853 | 27.22° C | 43% | 1020.2 hPa | - | - | - | - |
| 1787967312 | 28.33° C | 36% | 1019.5 hPa | - | - | - | - |
| 1787963772 | 28.89° C | 38% | 1018.1 hPa | - | - | - | - |
| 1787953152 | 28.89° C | 36% | 1019.1 hPa | - | - | - | - |
| 1787949612 | 28.89° C | 37% | 1019.3 hPa | - | - | - | - |
| 1787945865 | 28.89° C | 36% | 1019.3 hPa | - | - | - | - |
| 1787942325 | 28.89° C | 36% | 1019.8 hPa | - | - | - | - |
| 1787938785 | 29.44° C | 36% | 1019.4 hPa | - | - | - | - |
| 1787935245 | 29.44° C | 34% | 1019.6 hPa | - | - | - | - |
| 1787928165 | 30° C | 33% | 1020.2 hPa | - | - | - | - |
| 1787921084 | 29.44° C | 32% | 1020.9 hPa | - | - | - | - |
| 1787917544 | 29.44° C | 31% | 1022.1 hPa | - | - | - | - |
| 1787912566 | 29.44° C | 31% | 1022.6 hPa | - | - | - | - |
| 1787909025 | 28.89° C | 31% | 1022.9 hPa | - | - | - | - |
| 1787905485 | 29.44° C | 31% | 1023.3 hPa | - | - | - | - |
| 1787901945 | 28.89° C | 32% | 1023.6 hPa | - | - | - | - |
| 1787898405 | 28.33° C | 33% | 1023.5 hPa | - | - | - | - |
| 1787894865 | 26.67° C | 35% | 1023 hPa | - | - | - | - |
| 1787891324 | 26.11° C | 35% | 1023.2 hPa | - | - | - | - |
| 1787887784 | 26.67° C | 34% | 1023.1 hPa | - | - | - | - |
| 1787884244 | 26.67° C | 35% | 1023.2 hPa | - | - | - | - |
| 1787880704 | 27.22° C | 34% | 1023.3 hPa | - | - | - | - |
| 1787877164 | 27.22° C | 34% | 1023.7 hPa | - | - | - | - |
* Rain since midnight (hover to see other rain measurements)
** Current wind speed in m/s (hover to see current wind gust speed)